sensor_id;sensor_type;location;lat;lon;timestamp;P1;durP1;ratioP1;P2;durP2;ratioP2
80104;SDS011;69410;47.648;19.030;2023-04-24T00:00:11;14.30;;;14.30;;
80104;SDS011;69410;47.648;19.030;2023-04-24T00:00:42;15.17;;;15.17;;
80104;SDS011;69410;47.648;19.030;2023-04-24T00:01:13;15.23;;;15.23;;
80104;SDS011;69410;47.648;19.030;2023-04-24T00:01:43;15.43;;;15.43;;
80104;SDS011;69410;47.648;19.030;2023-04-24T00:02:14;15.37;;;15.37;;
80104;SDS011;69410;47.648;19.030;2023-04-24T00:02:45;15.33;;;15.33;;
80104;SDS011;69410;47.648;19.030;2023-04-24T00:03:16;15.23;;;15.23;;
80104;SDS011;69410;47.648;19.030;2023-04-24T00:03:47;14.73;;;14.73;;
80104;SDS011;69410;47.648;19.030;2023-04-24T00:04:19;15.20;;;15.20;;
80104;SDS011;69410;47.648;19.030;2023-04-24T00:04:50;14.97;;;14.97;;
80104;SDS011;69410;47.648;19.030;2023-04-24T00:05:20;14.63;;;14.63;;
80104;SDS011;69410;47.648;19.030;2023-04-24T00:05:51;15.13;;;15.13;;
80104;SDS011;69410;47.648;19.030;2023-04-24T00:06:22;15.50;;;15.50;;
80104;SDS011;69410;47.648;19.030;2023-04-24T00:06:53;15.97;;;15.97;;
80104;SDS011;69410;47.648;19.030;2023-04-24T00:07:24;15.37;;;15.37;;
80104;SDS011;69410;47.648;19.030;2023-04-24T00:07:54;14.97;;;14.97;;
80104;SDS011;69410;47.648;19.030;2023-04-24T00:08:25;15.23;;;15.23;;
80104;SDS011;69410;47.648;19.030;2023-04-24T00:08:56;15.60;;;15.60;;
80104;SDS011;69410;47.648;19.030;2023-04-24T00:09:27;14.67;;;14.67;;
80104;SDS011;69410;47.648;19.030;2023-04-24T00:09:57;14.33;;;14.33;;
80104;SDS011;69410;47.648;19.030;2023-04-24T00:10:28;14.60;;;14.60;;
80104;SDS011;69410;47.648;19.030;2023-04-24T00:11:00;15.30;;;15.30;;
80104;SDS011;69410;47.648;19.030;2023-04-24T00:11:31;15.17;;;15.17;;
80104;SDS011;69410;47.648;19.030;2023-04-24T00:12:01;14.77;;;14.77;;
80104;SDS011;69410;47.648;19.030;2023-04-24T00:12:33;14.60;;;14.60;;
80104;SDS011;69410;47.648;19.030;2023-04-24T00:13:08;14.27;;;14.27;;
80104;SDS011;69410;47.648;19.030;2023-04-24T00:13:39;15.27;;;15.27;;
80104;SDS011;69410;47.648;19.030;2023-04-24T00:14:10;15.93;;;15.93;;
80104;SDS011;69410;47.648;19.030;2023-04-24T00:14:40;15.53;;;15.53;;
80104;SDS011;69410;47.648;19.030;2023-04-24T00:15:11;15.60;;;15.60;;
80104;SDS011;69410;47.648;19.030;2023-04-24T00:15:42;15.40;;;15.40;;
80104;SDS011;69410;47.648;19.030;2023-04-24T00:16:13;15.43;;;15.43;;
80104;SDS011;69410;47.648;19.030;2023-04-24T00:16:44;14.83;;;14.83;;
80104;SDS011;69410;47.648;19.030;2023-04-24T00:17:14;15.17;;;15.17;;
80104;SDS011;69410;47.648;19.030;2023-04-24T00:17:45;15.33;;;15.33;;
80104;SDS011;69410;47.648;19.030;2023-04-24T00:18:16;15.10;;;15.10;;
80104;SDS011;69410;47.648;19.030;2023-04-24T00:18:47;15.60;;;15.60;;
80104;SDS011;69410;47.648;19.030;2023-04-24T00:19:19;15.00;;;15.00;;
80104;SDS011;69410;47.648;19.030;2023-04-24T00:19:50;14.37;;;14.37;;
80104;SDS011;69410;47.648;19.030;2023-04-24T00:20:21;14.60;;;14.60;;
80104;SDS011;69410;47.648;19.030;2023-04-24T00:20:51;14.07;;;14.07;;
80104;SDS011;69410;47.648;19.030;2023-04-24T00:21:23;14.80;;;14.80;;
80104;SDS011;69410;47.648;19.030;2023-04-24T00:21:53;15.60;;;15.60;;
80104;SDS011;69410;47.648;19.030;2023-04-24T00:22:25;15.63;;;15.63;;
80104;SDS011;69410;47.648;19.030;2023-04-24T00:22:55;15.70;;;15.70;;
80104;SDS011;69410;47.648;19.030;2023-04-24T00:23:26;16.03;;;16.03;;
80104;SDS011;69410;47.648;19.030;2023-04-24T00:23:57;15.97;;;15.97;;
80104;SDS011;69410;47.648;19.030;2023-04-24T00:24:28;15.80;;;15.80;;
80104;SDS011;69410;47.648;19.030;2023-04-24T00:24:59;15.27;;;15.27;;
80104;SDS011;69410;47.648;19.030;2023-04-24T00:25:30;15.63;;;15.63;;
80104;SDS011;69410;47.648;19.030;2023-04-24T00:26:01;15.00;;;15.00;;
80104;SDS011;69410;47.648;19.030;2023-04-24T00:26:32;15.30;;;15.30;;
80104;SDS011;69410;47.648;19.030;2023-04-24T00:27:03;15.40;;;15.40;;
80104;SDS011;69410;47.648;19.030;2023-04-24T00:27:33;15.47;;;15.47;;
80104;SDS011;69410;47.648;19.030;2023-04-24T00:28:04;14.60;;;14.60;;
80104;SDS011;69410;47.648;19.030;2023-04-24T00:28:35;15.00;;;15.00;;
80104;SDS011;69410;47.648;19.030;2023-04-24T00:29:05;14.77;;;14.77;;
80104;SDS011;69410;47.648;19.030;2023-04-24T00:29:36;15.07;;;15.07;;
80104;SDS011;69410;47.648;19.030;2023-04-24T00:30:07;14.90;;;14.90;;
80104;SDS011;69410;47.648;19.030;2023-04-24T00:30:39;15.83;;;15.83;;
80104;SDS011;69410;47.648;19.030;2023-04-24T00:31:10;15.90;;;15.90;;
80104;SDS011;69410;47.648;19.030;2023-04-24T00:31:41;14.83;;;14.83;;
80104;SDS011;69410;47.648;19.030;2023-04-24T00:32:11;15.20;;;15.20;;
80104;SDS011;69410;47.648;19.030;2023-04-24T00:32:42;15.17;;;15.17;;
80104;SDS011;69410;47.648;19.030;2023-04-24T00:33:13;15.17;;;15.17;;
80104;SDS011;69410;47.648;19.030;2023-04-24T00:33:44;15.17;;;15.17;;
80104;SDS011;69410;47.648;19.030;2023-04-24T00:34:14;15.03;;;15.03;;
80104;SDS011;69410;47.648;19.030;2023-04-24T00:34:47;14.27;;;14.27;;
80104;SDS011;69410;47.648;19.030;2023-04-24T00:35:17;15.27;;;15.27;;
80104;SDS011;69410;47.648;19.030;2023-04-24T00:35:48;15.90;;;15.90;;
80104;SDS011;69410;47.648;19.030;2023-04-24T00:36:19;16.00;;;16.00;;
80104;SDS011;69410;47.648;19.030;2023-04-24T00:36:50;15.50;;;15.50;;
80104;SDS011;69410;47.648;19.030;2023-04-24T00:37:20;16.00;;;16.00;;
80104;SDS011;69410;47.648;19.030;2023-04-24T00:37:51;15.23;;;15.23;;
80104;SDS011;69410;47.648;19.030;2023-04-24T00:38:22;15.43;;;15.43;;
80104;SDS011;69410;47.648;19.030;2023-04-24T00:38:53;14.87;;;14.87;;
80104;SDS011;69410;47.648;19.030;2023-04-24T00:39:23;14.93;;;14.93;;
80104;SDS011;69410;47.648;19.030;2023-04-24T00:39:54;16.17;;;16.17;;
80104;SDS011;69410;47.648;19.030;2023-04-24T00:40:25;15.80;;;15.80;;
80104;SDS011;69410;47.648;19.030;2023-04-24T00:40:58;15.23;;;15.23;;
80104;SDS011;69410;47.648;19.030;2023-04-24T00:41:29;13.80;;;13.80;;
80104;SDS011;69410;47.648;19.030;2023-04-24T00:42:00;14.90;;;14.87;;
80104;SDS011;69410;47.648;19.030;2023-04-24T00:42:31;15.17;;;15.17;;
80104;SDS011;69410;47.648;19.030;2023-04-24T00:43:02;14.87;;;14.87;;
80104;SDS011;69410;47.648;19.030;2023-04-24T00:43:33;14.40;;;14.40;;
80104;SDS011;69410;47.648;19.030;2023-04-24T00:44:04;14.13;;;14.13;;
80104;SDS011;69410;47.648;19.030;2023-04-24T00:44:34;15.20;;;15.20;;
80104;SDS011;69410;47.648;19.030;2023-04-24T00:45:06;15.63;;;15.63;;
80104;SDS011;69410;47.648;19.030;2023-04-24T00:45:37;15.13;;;15.13;;
80104;SDS011;69410;47.648;19.030;2023-04-24T00:46:08;14.87;;;14.87;;
80104;SDS011;69410;47.648;19.030;2023-04-24T00:46:39;15.27;;;15.27;;
80104;SDS011;69410;47.648;19.030;2023-04-24T00:47:10;15.07;;;15.07;;
80104;SDS011;69410;47.648;19.030;2023-04-24T00:47:41;14.77;;;14.77;;
80104;SDS011;69410;47.648;19.030;2023-04-24T00:48:12;14.07;;;14.07;;
80104;SDS011;69410;47.648;19.030;2023-04-24T00:48:44;14.67;;;14.67;;
80104;SDS011;69410;47.648;19.030;2023-04-24T00:49:15;14.40;;;14.40;;
80104;SDS011;69410;47.648;19.030;2023-04-24T00:49:47;14.40;;;14.40;;
80104;SDS011;69410;47.648;19.030;2023-04-24T00:50:18;15.40;;;15.40;;
80104;SDS011;69410;47.648;19.030;2023-04-24T00:50:50;14.57;;;14.57;;
80104;SDS011;69410;47.648;19.030;2023-04-24T00:51:21;15.30;;;15.30;;
80104;SDS011;69410;47.648;19.030;2023-04-24T00:51:52;15.20;;;15.20;;
80104;SDS011;69410;47.648;19.030;2023-04-24T00:52:23;15.47;;;15.47;;
80104;SDS011;69410;47.648;19.030;2023-04-24T00:52:53;14.97;;;14.97;;
80104;SDS011;69410;47.648;19.030;2023-04-24T00:53:24;14.70;;;14.70;;
80104;SDS011;69410;47.648;19.030;2023-04-24T00:53:55;16.03;;;16.03;;
80104;SDS011;69410;47.648;19.030;2023-04-24T00:54:26;15.70;;;15.70;;
80104;SDS011;69410;47.648;19.030;2023-04-24T00:54:57;15.57;;;15.57;;
80104;SDS011;69410;47.648;19.030;2023-04-24T00:55:27;15.27;;;15.27;;
80104;SDS011;69410;47.648;19.030;2023-04-24T00:56:02;16.27;;;16.27;;
80104;SDS011;69410;47.648;19.030;2023-04-24T00:56:39;15.33;;;15.33;;
80104;SDS011;69410;47.648;19.030;2023-04-24T00:57:22;14.77;;;14.77;;
80104;SDS011;69410;47.648;19.030;2023-04-24T00:57:54;15.20;;;15.20;;
80104;SDS011;69410;47.648;19.030;2023-04-24T00:58:26;15.03;;;15.03;;
80104;SDS011;69410;47.648;19.030;2023-04-24T00:59:01;15.53;;;15.53;;
80104;SDS011;69410;47.648;19.030;2023-04-24T00:59:32;15.13;;;15.13;;
80104;SDS011;69410;47.648;19.030;2023-04-24T01:00:03;15.57;;;15.57;;
80104;SDS011;69410;47.648;19.030;2023-04-24T01:00:38;14.80;;;14.80;;
80104;SDS011;69410;47.648;19.030;2023-04-24T01:01:09;14.83;;;14.83;;
80104;SDS011;69410;47.648;19.030;2023-04-24T01:01:40;15.70;;;15.70;;
80104;SDS011;69410;47.648;19.030;2023-04-24T01:02:12;15.47;;;15.47;;
80104;SDS011;69410;47.648;19.030;2023-04-24T01:02:46;15.33;;;15.33;;
80104;SDS011;69410;47.648;19.030;2023-04-24T01:03:18;15.63;;;15.63;;
80104;SDS011;69410;47.648;19.030;2023-04-24T01:03:53;15.70;;;15.70;;
80104;SDS011;69410;47.648;19.030;2023-04-24T01:04:29;15.23;;;15.23;;
80104;SDS011;69410;47.648;19.030;2023-04-24T01:05:01;14.87;;;14.87;;
80104;SDS011;69410;47.648;19.030;2023-04-24T01:05:32;16.30;;;16.30;;
80104;SDS011;69410;47.648;19.030;2023-04-24T01:06:04;16.00;;;16.00;;
80104;SDS011;69410;47.648;19.030;2023-04-24T01:06:35;15.20;;;15.20;;
80104;SDS011;69410;47.648;19.030;2023-04-24T01:08:13;14.83;;;14.83;;
80104;SDS011;69410;47.648;19.030;2023-04-24T01:08:47;15.70;;;15.70;;
80104;SDS011;69410;47.648;19.030;2023-04-24T01:09:24;15.97;;;15.97;;
80104;SDS011;69410;47.648;19.030;2023-04-24T01:09:57;16.47;;;16.47;;
80104;SDS011;69410;47.648;19.030;2023-04-24T01:10:27;15.37;;;15.37;;
80104;SDS011;69410;47.648;19.030;2023-04-24T01:11:01;14.67;;;14.67;;
80104;SDS011;69410;47.648;19.030;2023-04-24T01:11:34;15.03;;;15.03;;
80104;SDS011;69410;47.648;19.030;2023-04-24T01:12:05;14.90;;;14.90;;
80104;SDS011;69410;47.648;19.030;2023-04-24T01:12:36;15.83;;;15.83;;
80104;SDS011;69410;47.648;19.030;2023-04-24T01:13:07;16.33;;;16.33;;
80104;SDS011;69410;47.648;19.030;2023-04-24T01:13:38;16.40;;;16.40;;
80104;SDS011;69410;47.648;19.030;2023-04-24T01:14:10;15.43;;;15.43;;
80104;SDS011;69410;47.648;19.030;2023-04-24T01:14:42;15.43;;;15.43;;
80104;SDS011;69410;47.648;19.030;2023-04-24T01:15:13;15.73;;;15.73;;
80104;SDS011;69410;47.648;19.030;2023-04-24T01:15:44;15.93;;;15.93;;
80104;SDS011;69410;47.648;19.030;2023-04-24T01:16:15;14.97;;;14.97;;
80104;SDS011;69410;47.648;19.030;2023-04-24T01:16:46;14.63;;;14.63;;
80104;SDS011;69410;47.648;19.030;2023-04-24T01:17:17;15.23;;;15.23;;
80104;SDS011;69410;47.648;19.030;2023-04-24T01:17:47;16.60;;;16.60;;
80104;SDS011;69410;47.648;19.030;2023-04-24T01:18:18;16.00;;;16.00;;
80104;SDS011;69410;47.648;19.030;2023-04-24T01:18:49;15.63;;;15.63;;
80104;SDS011;69410;47.648;19.030;2023-04-24T01:19:20;16.00;;;16.00;;
80104;SDS011;69410;47.648;19.030;2023-04-24T01:19:51;15.50;;;15.50;;
80104;SDS011;69410;47.648;19.030;2023-04-24T01:20:23;15.50;;;15.50;;
80104;SDS011;69410;47.648;19.030;2023-04-24T01:20:57;15.40;;;15.40;;
80104;SDS011;69410;47.648;19.030;2023-04-24T01:21:29;15.80;;;15.80;;
80104;SDS011;69410;47.648;19.030;2023-04-24T01:22:08;16.63;;;16.63;;
80104;SDS011;69410;47.648;19.030;2023-04-24T01:22:41;16.43;;;16.43;;
80104;SDS011;69410;47.648;19.030;2023-04-24T01:23:12;15.93;;;15.93;;
80104;SDS011;69410;47.648;19.030;2023-04-24T01:23:43;16.40;;;16.40;;
80104;SDS011;69410;47.648;19.030;2023-04-24T01:24:14;16.07;;;16.07;;
80104;SDS011;69410;47.648;19.030;2023-04-24T01:24:45;16.10;;;16.10;;
80104;SDS011;69410;47.648;19.030;2023-04-24T01:25:16;15.73;;;15.73;;
80104;SDS011;69410;47.648;19.030;2023-04-24T01:25:47;16.10;;;16.10;;
80104;SDS011;69410;47.648;19.030;2023-04-24T01:26:19;16.47;;;16.47;;
80104;SDS011;69410;47.648;19.030;2023-04-24T01:26:50;16.83;;;16.83;;
80104;SDS011;69410;47.648;19.030;2023-04-24T01:27:21;16.40;;;16.40;;
80104;SDS011;69410;47.648;19.030;2023-04-24T01:27:52;16.07;;;16.07;;
80104;SDS011;69410;47.648;19.030;2023-04-24T01:28:23;14.80;;;14.80;;
80104;SDS011;69410;47.648;19.030;2023-04-24T01:28:54;15.10;;;15.10;;
80104;SDS011;69410;47.648;19.030;2023-04-24T01:29:25;14.70;;;14.70;;
80104;SDS011;69410;47.648;19.030;2023-04-24T01:29:56;15.47;;;15.47;;
80104;SDS011;69410;47.648;19.030;2023-04-24T01:30:27;15.37;;;15.37;;
80104;SDS011;69410;47.648;19.030;2023-04-24T01:31:00;15.70;;;15.70;;
80104;SDS011;69410;47.648;19.030;2023-04-24T01:31:31;16.10;;;16.10;;
80104;SDS011;69410;47.648;19.030;2023-04-24T01:32:03;15.80;;;15.80;;
80104;SDS011;69410;47.648;19.030;2023-04-24T01:32:35;15.50;;;15.50;;
80104;SDS011;69410;47.648;19.030;2023-04-24T01:33:07;16.40;;;16.40;;
80104;SDS011;69410;47.648;19.030;2023-04-24T01:33:38;16.30;;;16.30;;
80104;SDS011;69410;47.648;19.030;2023-04-24T01:34:09;15.43;;;15.43;;
80104;SDS011;69410;47.648;19.030;2023-04-24T01:34:41;15.10;;;15.10;;
80104;SDS011;69410;47.648;19.030;2023-04-24T01:35:13;16.03;;;16.03;;
80104;SDS011;69410;47.648;19.030;2023-04-24T01:35:44;15.93;;;15.93;;
80104;SDS011;69410;47.648;19.030;2023-04-24T01:36:15;15.70;;;15.70;;
80104;SDS011;69410;47.648;19.030;2023-04-24T01:36:47;16.67;;;16.67;;
80104;SDS011;69410;47.648;19.030;2023-04-24T01:37:19;16.83;;;16.83;;
80104;SDS011;69410;47.648;19.030;2023-04-24T01:37:50;16.57;;;16.57;;
80104;SDS011;69410;47.648;19.030;2023-04-24T01:38:21;16.10;;;16.10;;
80104;SDS011;69410;47.648;19.030;2023-04-24T01:38:52;15.60;;;15.60;;
80104;SDS011;69410;47.648;19.030;2023-04-24T01:39:23;16.07;;;16.07;;
80104;SDS011;69410;47.648;19.030;2023-04-24T01:39:54;16.83;;;16.83;;
80104;SDS011;69410;47.648;19.030;2023-04-24T01:40:24;16.30;;;16.30;;
80104;SDS011;69410;47.648;19.030;2023-04-24T01:40:55;15.40;;;15.40;;
80104;SDS011;69410;47.648;19.030;2023-04-24T01:41:26;15.67;;;15.67;;
80104;SDS011;69410;47.648;19.030;2023-04-24T01:41:57;16.13;;;16.13;;
80104;SDS011;69410;47.648;19.030;2023-04-24T01:42:28;16.00;;;16.00;;
80104;SDS011;69410;47.648;19.030;2023-04-24T01:42:59;14.97;;;14.97;;
80104;SDS011;69410;47.648;19.030;2023-04-24T01:43:30;15.23;;;15.23;;
80104;SDS011;69410;47.648;19.030;2023-04-24T01:44:02;15.93;;;15.93;;
80104;SDS011;69410;47.648;19.030;2023-04-24T01:44:33;15.77;;;15.77;;
80104;SDS011;69410;47.648;19.030;2023-04-24T01:45:05;16.30;;;16.30;;
80104;SDS011;69410;47.648;19.030;2023-04-24T01:45:36;16.80;;;16.80;;
80104;SDS011;69410;47.648;19.030;2023-04-24T01:46:07;16.67;;;16.67;;
80104;SDS011;69410;47.648;19.030;2023-04-24T01:46:38;16.10;;;16.10;;
80104;SDS011;69410;47.648;19.030;2023-04-24T01:47:10;15.90;;;15.90;;
80104;SDS011;69410;47.648;19.030;2023-04-24T01:47:41;15.67;;;15.67;;
80104;SDS011;69410;47.648;19.030;2023-04-24T01:48:12;15.47;;;15.47;;
80104;SDS011;69410;47.648;19.030;2023-04-24T01:48:44;17.37;;;17.37;;
80104;SDS011;69410;47.648;19.030;2023-04-24T01:49:15;16.50;;;16.50;;
80104;SDS011;69410;47.648;19.030;2023-04-24T01:49:46;16.27;;;16.27;;
80104;SDS011;69410;47.648;19.030;2023-04-24T01:50:18;16.83;;;16.83;;
80104;SDS011;69410;47.648;19.030;2023-04-24T01:50:49;16.63;;;16.63;;
80104;SDS011;69410;47.648;19.030;2023-04-24T01:51:20;17.23;;;17.23;;
80104;SDS011;69410;47.648;19.030;2023-04-24T01:51:51;16.63;;;16.63;;
80104;SDS011;69410;47.648;19.030;2023-04-24T01:52:23;16.13;;;16.13;;
80104;SDS011;69410;47.648;19.030;2023-04-24T01:52:53;16.13;;;16.13;;
80104;SDS011;69410;47.648;19.030;2023-04-24T01:53:24;16.70;;;16.70;;
80104;SDS011;69410;47.648;19.030;2023-04-24T01:53:55;15.87;;;15.87;;
80104;SDS011;69410;47.648;19.030;2023-04-24T01:54:26;15.13;;;15.13;;
80104;SDS011;69410;47.648;19.030;2023-04-24T01:54:59;16.30;;;16.30;;
80104;SDS011;69410;47.648;19.030;2023-04-24T01:55:30;16.33;;;16.33;;
80104;SDS011;69410;47.648;19.030;2023-04-24T01:56:01;17.03;;;17.03;;
80104;SDS011;69410;47.648;19.030;2023-04-24T01:56:33;16.57;;;16.57;;
80104;SDS011;69410;47.648;19.030;2023-04-24T01:57:04;16.67;;;16.67;;
80104;SDS011;69410;47.648;19.030;2023-04-24T01:57:36;16.73;;;16.73;;
80104;SDS011;69410;47.648;19.030;2023-04-24T01:58:07;16.67;;;16.67;;
80104;SDS011;69410;47.648;19.030;2023-04-24T01:58:38;16.30;;;16.30;;
80104;SDS011;69410;47.648;19.030;2023-04-24T01:59:11;16.20;;;16.20;;
80104;SDS011;69410;47.648;19.030;2023-04-24T01:59:42;16.30;;;16.30;;
80104;SDS011;69410;47.648;19.030;2023-04-24T02:00:13;16.97;;;16.97;;
80104;SDS011;69410;47.648;19.030;2023-04-24T02:00:44;16.50;;;16.50;;
80104;SDS011;69410;47.648;19.030;2023-04-24T02:01:15;16.17;;;16.17;;
80104;SDS011;69410;47.648;19.030;2023-04-24T02:01:48;16.53;;;16.53;;
80104;SDS011;69410;47.648;19.030;2023-04-24T02:02:19;15.93;;;15.93;;
80104;SDS011;69410;47.648;19.030;2023-04-24T02:02:49;15.07;;;15.07;;
80104;SDS011;69410;47.648;19.030;2023-04-24T02:03:20;15.77;;;15.77;;
80104;SDS011;69410;47.648;19.030;2023-04-24T02:03:51;16.80;;;16.80;;
80104;SDS011;69410;47.648;19.030;2023-04-24T02:04:22;16.30;;;16.30;;
80104;SDS011;69410;47.648;19.030;2023-04-24T02:04:53;16.17;;;16.17;;
80104;SDS011;69410;47.648;19.030;2023-04-24T02:05:24;15.87;;;15.87;;
80104;SDS011;69410;47.648;19.030;2023-04-24T02:05:55;16.80;;;16.80;;
80104;SDS011;69410;47.648;19.030;2023-04-24T02:06:30;18.97;;;18.97;;
80104;SDS011;69410;47.648;19.030;2023-04-24T02:07:01;19.33;;;19.33;;
80104;SDS011;69410;47.648;19.030;2023-04-24T02:07:33;18.57;;;18.57;;
80104;SDS011;69410;47.648;19.030;2023-04-24T02:08:04;18.07;;;18.07;;
80104;SDS011;69410;47.648;19.030;2023-04-24T02:08:35;17.67;;;17.67;;
80104;SDS011;69410;47.648;19.030;2023-04-24T02:09:06;18.00;;;18.00;;
80104;SDS011;69410;47.648;19.030;2023-04-24T02:09:36;18.10;;;18.10;;
80104;SDS011;69410;47.648;19.030;2023-04-24T02:10:08;17.20;;;17.20;;
80104;SDS011;69410;47.648;19.030;2023-04-24T02:10:40;17.33;;;17.33;;
80104;SDS011;69410;47.648;19.030;2023-04-24T02:11:10;17.63;;;17.63;;
80104;SDS011;69410;47.648;19.030;2023-04-24T02:11:41;17.77;;;17.77;;
80104;SDS011;69410;47.648;19.030;2023-04-24T02:12:12;17.00;;;17.00;;
80104;SDS011;69410;47.648;19.030;2023-04-24T02:12:43;17.37;;;17.37;;
80104;SDS011;69410;47.648;19.030;2023-04-24T02:13:13;17.80;;;17.80;;
80104;SDS011;69410;47.648;19.030;2023-04-24T02:13:44;17.93;;;17.93;;
80104;SDS011;69410;47.648;19.030;2023-04-24T02:14:15;17.20;;;17.20;;
80104;SDS011;69410;47.648;19.030;2023-04-24T02:14:46;16.97;;;16.97;;
80104;SDS011;69410;47.648;19.030;2023-04-24T02:15:16;17.17;;;17.17;;
80104;SDS011;69410;47.648;19.030;2023-04-24T02:15:47;17.97;;;17.97;;
80104;SDS011;69410;47.648;19.030;2023-04-24T02:16:18;16.73;;;16.73;;
80104;SDS011;69410;47.648;19.030;2023-04-24T02:16:49;17.27;;;17.27;;
80104;SDS011;69410;47.648;19.030;2023-04-24T02:17:19;18.20;;;18.20;;
80104;SDS011;69410;47.648;19.030;2023-04-24T02:17:50;17.47;;;17.47;;
80104;SDS011;69410;47.648;19.030;2023-04-24T02:18:21;17.87;;;17.87;;
80104;SDS011;69410;47.648;19.030;2023-04-24T02:18:52;17.43;;;17.43;;
80104;SDS011;69410;47.648;19.030;2023-04-24T02:19:22;17.70;;;17.70;;
80104;SDS011;69410;47.648;19.030;2023-04-24T02:19:53;18.63;;;18.63;;
80104;SDS011;69410;47.648;19.030;2023-04-24T02:20:24;17.57;;;17.57;;
80104;SDS011;69410;47.648;19.030;2023-04-24T02:20:55;17.77;;;17.77;;
80104;SDS011;69410;47.648;19.030;2023-04-24T02:21:26;17.73;;;17.73;;
80104;SDS011;69410;47.648;19.030;2023-04-24T02:21:56;17.70;;;17.70;;
80104;SDS011;69410;47.648;19.030;2023-04-24T02:22:27;18.50;;;18.50;;
80104;SDS011;69410;47.648;19.030;2023-04-24T02:22:59;18.80;;;18.80;;
80104;SDS011;69410;47.648;19.030;2023-04-24T02:23:30;18.13;;;18.13;;
80104;SDS011;69410;47.648;19.030;2023-04-24T02:24:01;18.97;;;18.97;;
80104;SDS011;69410;47.648;19.030;2023-04-24T02:24:31;19.63;;;19.63;;
80104;SDS011;69410;47.648;19.030;2023-04-24T02:25:02;19.33;;;19.33;;
80104;SDS011;69410;47.648;19.030;2023-04-24T02:25:34;19.53;;;19.53;;
80104;SDS011;69410;47.648;19.030;2023-04-24T02:26:05;19.20;;;19.20;;
80104;SDS011;69410;47.648;19.030;2023-04-24T02:26:36;18.23;;;18.23;;
80104;SDS011;69410;47.648;19.030;2023-04-24T02:27:06;19.47;;;19.47;;
80104;SDS011;69410;47.648;19.030;2023-04-24T02:27:37;18.37;;;18.37;;
80104;SDS011;69410;47.648;19.030;2023-04-24T02:28:08;18.23;;;18.23;;
80104;SDS011;69410;47.648;19.030;2023-04-24T02:28:38;18.37;;;18.37;;
80104;SDS011;69410;47.648;19.030;2023-04-24T02:29:09;18.63;;;18.63;;
80104;SDS011;69410;47.648;19.030;2023-04-24T02:29:40;18.53;;;18.53;;
80104;SDS011;69410;47.648;19.030;2023-04-24T02:30:11;17.87;;;17.87;;
80104;SDS011;69410;47.648;19.030;2023-04-24T02:30:42;18.47;;;18.47;;
80104;SDS011;69410;47.648;19.030;2023-04-24T02:31:13;18.47;;;18.47;;
80104;SDS011;69410;47.648;19.030;2023-04-24T02:31:44;18.57;;;18.57;;
80104;SDS011;69410;47.648;19.030;2023-04-24T02:32:15;20.33;;;20.33;;
80104;SDS011;69410;47.648;19.030;2023-04-24T02:32:45;20.43;;;20.43;;
80104;SDS011;69410;47.648;19.030;2023-04-24T02:33:16;18.87;;;18.87;;
80104;SDS011;69410;47.648;19.030;2023-04-24T02:33:47;18.57;;;18.57;;
80104;SDS011;69410;47.648;19.030;2023-04-24T02:34:17;19.10;;;19.10;;
80104;SDS011;69410;47.648;19.030;2023-04-24T02:34:48;20.97;;;20.97;;
80104;SDS011;69410;47.648;19.030;2023-04-24T02:35:19;24.20;;;24.20;;
80104;SDS011;69410;47.648;19.030;2023-04-24T02:35:50;24.47;;;24.47;;
80104;SDS011;69410;47.648;19.030;2023-04-24T02:36:20;23.50;;;23.50;;
80104;SDS011;69410;47.648;19.030;2023-04-24T02:36:51;22.33;;;22.33;;
80104;SDS011;69410;47.648;19.030;2023-04-24T02:37:22;22.67;;;22.67;;
80104;SDS011;69410;47.648;19.030;2023-04-24T02:37:53;22.83;;;22.83;;
80104;SDS011;69410;47.648;19.030;2023-04-24T02:38:25;22.47;;;22.47;;
80104;SDS011;69410;47.648;19.030;2023-04-24T02:38:55;21.60;;;21.60;;
80104;SDS011;69410;47.648;19.030;2023-04-24T02:39:26;21.17;;;21.17;;
80104;SDS011;69410;47.648;19.030;2023-04-24T02:39:57;21.40;;;21.40;;
80104;SDS011;69410;47.648;19.030;2023-04-24T02:40:27;21.93;;;21.93;;
80104;SDS011;69410;47.648;19.030;2023-04-24T02:40:58;21.83;;;21.83;;
80104;SDS011;69410;47.648;19.030;2023-04-24T02:41:29;22.53;;;22.53;;
80104;SDS011;69410;47.648;19.030;2023-04-24T02:42:00;23.53;;;23.53;;
80104;SDS011;69410;47.648;19.030;2023-04-24T02:42:31;25.43;;;25.43;;
80104;SDS011;69410;47.648;19.030;2023-04-24T02:43:01;25.03;;;24.97;;
80104;SDS011;69410;47.648;19.030;2023-04-24T02:43:32;25.40;;;25.40;;
80104;SDS011;69410;47.648;19.030;2023-04-24T02:44:03;25.10;;;25.10;;
80104;SDS011;69410;47.648;19.030;2023-04-24T02:44:34;24.67;;;24.67;;
80104;SDS011;69410;47.648;19.030;2023-04-24T02:45:05;24.97;;;24.97;;
80104;SDS011;69410;47.648;19.030;2023-04-24T02:45:36;24.23;;;24.23;;
80104;SDS011;69410;47.648;19.030;2023-04-24T02:46:07;23.23;;;23.23;;
80104;SDS011;69410;47.648;19.030;2023-04-24T02:46:38;22.43;;;22.43;;
80104;SDS011;69410;47.648;19.030;2023-04-24T02:47:08;24.43;;;24.43;;
80104;SDS011;69410;47.648;19.030;2023-04-24T02:47:39;23.97;;;23.97;;
80104;SDS011;69410;47.648;19.030;2023-04-24T02:48:10;24.17;;;24.17;;
80104;SDS011;69410;47.648;19.030;2023-04-24T02:48:41;23.77;;;23.63;;
80104;SDS011;69410;47.648;19.030;2023-04-24T02:49:12;23.93;;;23.90;;
80104;SDS011;69410;47.648;19.030;2023-04-24T02:49:42;24.13;;;24.13;;
80104;SDS011;69410;47.648;19.030;2023-04-24T02:50:13;25.00;;;24.93;;
80104;SDS011;69410;47.648;19.030;2023-04-24T02:50:44;24.27;;;24.23;;
80104;SDS011;69410;47.648;19.030;2023-04-24T02:51:14;23.97;;;23.97;;
80104;SDS011;69410;47.648;19.030;2023-04-24T02:51:45;24.73;;;24.73;;
80104;SDS011;69410;47.648;19.030;2023-04-24T02:52:16;23.67;;;23.67;;
80104;SDS011;69410;47.648;19.030;2023-04-24T02:52:47;23.30;;;23.30;;
80104;SDS011;69410;47.648;19.030;2023-04-24T02:53:17;23.00;;;23.00;;
80104;SDS011;69410;47.648;19.030;2023-04-24T02:53:49;23.97;;;23.97;;
80104;SDS011;69410;47.648;19.030;2023-04-24T02:54:20;23.27;;;23.27;;
80104;SDS011;69410;47.648;19.030;2023-04-24T02:54:51;23.30;;;23.30;;
80104;SDS011;69410;47.648;19.030;2023-04-24T02:55:22;22.13;;;22.13;;
80104;SDS011;69410;47.648;19.030;2023-04-24T02:55:52;21.67;;;21.67;;
80104;SDS011;69410;47.648;19.030;2023-04-24T02:56:23;22.70;;;22.70;;
80104;SDS011;69410;47.648;19.030;2023-04-24T02:56:54;22.33;;;22.33;;
80104;SDS011;69410;47.648;19.030;2023-04-24T02:57:24;22.47;;;22.43;;
80104;SDS011;69410;47.648;19.030;2023-04-24T02:57:55;22.83;;;22.83;;
80104;SDS011;69410;47.648;19.030;2023-04-24T02:58:26;23.00;;;23.00;;
80104;SDS011;69410;47.648;19.030;2023-04-24T02:58:57;23.00;;;23.00;;
80104;SDS011;69410;47.648;19.030;2023-04-24T02:59:27;23.13;;;23.13;;
80104;SDS011;69410;47.648;19.030;2023-04-24T02:59:58;22.53;;;22.53;;
80104;SDS011;69410;47.648;19.030;2023-04-24T03:00:29;22.43;;;22.43;;
80104;SDS011;69410;47.648;19.030;2023-04-24T03:01:00;22.93;;;22.93;;